Time;durP1;ratioP1;P1;durP2;ratioP2;P2;SDS_P1;SDS_P2;PMS_P1;PMS_P2;Temp;Humidity;BMP_temperature;BMP_pressure;BME280_temperature;BME280_humidity;BME280_pressure;Samples;Min_cycle;Max_cycle;Signal;HPM_P1;HPM_P2
2022/07/13 00:00:18;;;;;;;;;;;;;;;;;;662815;29;1258;-88
2022/07/13 00:00:39;;;;;;;;;;;25.90;35.60;;;;;;665389;29;1213;-89
2022/07/13 00:00:59;;;;;;;;;;;25.90;35.60;;;;;;665150;29;1102;-90
2022/07/13 00:01:20;;;;;;;;;;;25.90;35.50;;;;;;665069;29;1385;-90
2022/07/13 00:01:40;;;;;;;;;;;25.90;35.50;;;;;;665320;29;1899;-89
2022/07/13 00:02:01;;;;;;;;;;;25.90;35.60;;;;;;667913;29;1143;-88
2022/07/13 00:02:22;;;;;;;;;;;25.90;35.60;;;;;;670126;29;1060;-89
2022/07/13 00:02:42;;;;;;;;;;;25.90;35.60;;;;;;670193;29;1199;-88
2022/07/13 00:03:03;;;;;;;;;;;25.90;35.50;;;;;;670444;29;1241;-89
2022/07/13 00:03:23;;;;;;;;;;;25.90;35.50;;;;;;670503;29;1219;-89
2022/07/13 00:03:44;;;;;;;;;;;25.90;35.50;;;;;;670472;29;1357;-88
2022/07/13 00:04:05;;;;;;;;;;;25.90;35.70;;;;;;672298;29;1223;-89
2022/07/13 00:04:25;;;;;;;;;;;25.90;35.60;;;;;;669859;29;1330;-89
2022/07/13 00:04:46;;;;;;;;;;;25.90;35.60;;;;;;670316;29;1205;-86
2022/07/13 00:05:07;;;;;;;;;;;25.80;35.60;;;;;;670182;29;1244;-88
2022/07/13 00:05:28;;;;;;;;;;;25.90;35.60;;;;;;670148;29;1454;-89
2022/07/13 00:05:48;;;;;;;;;;;25.90;35.50;;;;;;672712;29;1415;-88
2022/07/13 00:06:09;;;;;;;;;;;25.90;35.60;;;;;;670176;29;1374;-89
2022/07/13 00:06:29;;;;;;;;;;;25.90;35.70;;;;;;672495;29;1306;-88
2022/07/13 00:06:50;;;;;;;;;;;25.90;35.60;;;;;;672707;29;1227;-89
2022/07/13 00:07:10;;;;;;;;;;;25.90;35.60;;;;;;670169;29;1359;-89
2022/07/13 00:07:31;;;;;;;;;;;25.70;35.50;;;;;;670360;29;1414;-89
2022/07/13 00:07:52;;;;;;;;;;;25.90;35.60;;;;;;670129;29;1258;-89
2022/07/13 00:08:12;;;;;;;;;;;25.90;35.70;;;;;;667650;29;1248;-89
2022/07/13 00:08:33;;;;;;;;;;;25.90;35.70;;;;;;665012;29;1181;-89
2022/07/13 00:08:53;;;;;;;;;;;25.90;35.70;;;;;;668026;29;1232;-89
2022/07/13 00:09:14;;;;;;;;;;;25.90;35.60;;;;;;670457;29;1227;-89
2022/07/13 00:09:35;;;;;;;;;;;25.90;35.60;;;;;;672949;29;1285;-89
2022/07/13 00:09:55;;;;;;;;;;;25.90;35.60;;;;;;675169;29;1381;-89
2022/07/13 00:10:16;;;;;;;;;;;25.90;35.70;;;;;;672459;29;1477;-88
2022/07/13 00:10:36;;;;;;;;;;;25.90;35.70;;;;;;667512;29;1297;-89
2022/07/13 00:10:57;;;;;;;;;;;25.90;35.70;;;;;;667858;29;1329;-89
2022/07/13 00:11:18;;;;;;;;;;;25.90;35.70;;;;;;667330;29;1338;-89
2022/07/13 00:11:38;;;;;;;;;;;25.90;35.80;;;;;;665249;29;1231;-89
2022/07/13 00:11:59;;;;;;;;;;;;;;;;;;667796;29;1310;-89
2022/07/13 00:12:20;;;;;;;;;;;25.90;35.70;;;;;;672929;29;1300;-90
2022/07/13 00:12:40;;;;;;;;;;;25.90;35.70;;;;;;674999;29;1341;-89
2022/07/13 00:13:01;;;;;;;;;;;25.90;35.70;;;;;;675339;29;1188;-89
2022/07/13 00:13:21;;;;;;;;;;;25.90;35.70;;;;;;672949;29;1322;-89
2022/07/13 00:13:42;;;;;;;;;;;25.80;35.70;;;;;;675113;29;951;-89
2022/07/13 00:14:03;;;;;;;;;;;25.90;35.80;;;;;;674944;29;1281;-89
2022/07/13 00:14:23;;;;;;;;;;;25.90;35.70;;;;;;670129;29;1103;-89
2022/07/13 00:14:44;;;;;;;;;;;25.80;35.60;;;;;;670134;29;1134;-89
2022/07/13 00:15:05;;;;;;;;;;;25.90;35.70;;;;;;667990;29;1391;-89
2022/07/13 00:15:26;;;;;;;;;;;25.90;35.70;;;;;;670339;29;1382;-88
2022/07/13 00:15:46;;;;;;;;;;;;;;;;;;669966;29;1204;-88
2022/07/13 00:16:07;;;;;;;;;;;25.80;35.60;;;;;;670770;29;1247;-88
2022/07/13 00:16:28;;;;;;;;;;;25.80;35.70;;;;;;672411;29;1342;-89
2022/07/13 00:16:48;;;;;;;;;;;25.90;35.80;;;;;;667614;29;1119;-89
2022/07/13 00:17:09;;;;;;;;;;;25.90;35.90;;;;;;669869;29;1401;-88
2022/07/13 00:17:29;;;;;;;;;;;25.80;35.70;;;;;;670456;29;1222;-89
2022/07/13 00:17:50;;;;;;;;;;;25.80;35.80;;;;;;672582;29;1223;-89
2022/07/13 00:18:11;;;;;;;;;;;25.90;35.90;;;;;;670119;29;1315;-89
2022/07/13 00:18:31;;;;;;;;;;;25.90;35.90;;;;;;670140;29;1304;-90
2022/07/13 00:18:52;;;;;;;;;;;25.90;36.00;;;;;;667337;29;1326;-90
2022/07/13 00:19:12;;;;;;;;;;;25.80;35.80;;;;;;665358;29;1125;-90
2022/07/13 00:19:33;;;;;;;;;;;25.90;36.00;;;;;;667874;29;1250;-88
2022/07/13 00:19:54;;;;;;;;;;;25.90;36.00;;;;;;670096;29;1358;-89
2022/07/13 00:20:14;;;;;;;;;;;25.90;36.00;;;;;;670503;29;1254;-89
2022/07/13 00:20:35;;;;;;;;;;;25.90;36.00;;;;;;670380;29;1216;-89
2022/07/13 00:20:55;;;;;;;;;;;25.90;36.00;;;;;;669842;29;1263;-89
2022/07/13 00:21:16;;;;;;;;;;;25.80;35.90;;;;;;670181;29;1475;-89
2022/07/13 00:21:36;;;;;;;;;;;25.90;36.10;;;;;;670255;29;1903;-89
2022/07/13 00:21:57;;;;;;;;;;;25.90;36.10;;;;;;672447;29;1133;-89
2022/07/13 00:22:17;;;;;;;;;;;25.90;35.90;;;;;;670394;29;1203;-89
2022/07/13 00:22:39;;;;;;;;;;;25.90;36.00;;;;;;672480;29;1301;-89
2022/07/13 00:23:00;;;;;;;;;;;25.90;35.90;;;;;;672622;29;1291;-89
2022/07/13 00:23:21;;;;;;;;;;;25.90;35.90;;;;;;670161;29;1269;-89
2022/07/13 00:23:42;;;;;;;;;;;25.90;35.80;;;;;;667514;29;1235;-89
2022/07/13 00:24:03;;;;;;;;;;;;;;;;;;668268;29;1426;-88
2022/07/13 00:24:24;;;;;;;;;;;25.90;35.90;;;;;;670064;29;1234;-90
2022/07/13 00:24:44;;;;;;;;;;;25.90;35.80;;;;;;670517;29;1176;-89
2022/07/13 00:25:06;;;;;;;;;;;25.90;35.90;;;;;;672667;29;1201;-89
2022/07/13 00:25:27;;;;;;;;;;;;;;;;;;670645;29;1373;-89
2022/07/13 00:25:48;;;;;;;;;;;25.90;35.90;;;;;;669463;29;1363;-88
2022/07/13 00:26:09;;;;;;;;;;;25.90;35.80;;;;;;670210;29;1252;-88
2022/07/13 00:26:29;;;;;;;;;;;25.90;35.90;;;;;;670080;29;1322;-90
2022/07/13 00:26:50;;;;;;;;;;;25.90;35.80;;;;;;667539;29;1103;-89
2022/07/13 00:27:10;;;;;;;;;;;25.90;35.90;;;;;;665441;29;1328;-88
2022/07/13 00:27:31;;;;;;;;;;;25.90;35.90;;;;;;665412;29;1236;-89
2022/07/13 00:27:51;;;;;;;;;;;25.90;35.80;;;;;;667555;29;1365;-88
2022/07/13 00:28:12;;;;;;;;;;;25.90;35.80;;;;;;670313;29;1313;-88
2022/07/13 00:28:33;;;;;;;;;;;25.90;35.80;;;;;;672871;29;1166;-89
2022/07/13 00:28:54;;;;;;;;;;;25.90;35.80;;;;;;672646;29;1123;-89
2022/07/13 00:29:14;;;;;;;;;;;25.90;35.70;;;;;;670168;29;1227;-89
2022/07/13 00:29:35;;;;;;;;;;;25.90;35.80;;;;;;670130;29;1247;-89
2022/07/13 00:29:55;;;;;;;;;;;25.90;35.80;;;;;;670027;29;1340;-88
2022/07/13 00:30:16;;;;;;;;;;;25.90;35.70;;;;;;670405;29;1327;-88
2022/07/13 00:30:37;;;;;;;;;;;25.90;35.70;;;;;;672658;29;1238;-89
2022/07/13 00:30:57;;;;;;;;;;;25.90;35.70;;;;;;672653;29;1239;-88
2022/07/13 00:31:18;;;;;;;;;;;25.90;35.70;;;;;;672718;29;1335;-88
2022/07/13 00:31:38;;;;;;;;;;;25.90;35.70;;;;;;672705;29;1184;-89
2022/07/13 00:31:59;;;;;;;;;;;25.90;35.70;;;;;;670341;29;1231;-90
2022/07/13 00:32:20;;;;;;;;;;;25.90;35.70;;;;;;672759;29;864;-89
2022/07/13 00:32:40;;;;;;;;;;;25.90;35.70;;;;;;670078;29;1346;-88
2022/07/13 00:33:01;;;;;;;;;;;25.90;35.70;;;;;;670109;29;1330;-89
2022/07/13 00:33:21;;;;;;;;;;;25.90;35.70;;;;;;670441;29;1203;-88
2022/07/13 00:33:42;;;;;;;;;;;25.90;35.70;;;;;;670083;29;1202;-88
2022/07/13 00:34:02;;;;;;;;;;;25.90;35.70;;;;;;670105;29;1227;-89
2022/07/13 00:34:23;;;;;;;;;;;25.90;35.60;;;;;;670391;29;1263;-89
2022/07/13 00:34:43;;;;;;;;;;;25.90;35.70;;;;;;669905;29;1203;-89
2022/07/13 00:35:04;;;;;;;;;;;25.90;35.70;;;;;;665228;29;1370;-88
2022/07/13 00:35:25;;;;;;;;;;;25.90;35.70;;;;;;665441;29;1094;-89
2022/07/13 00:35:45;;;;;;;;;;;25.90;35.60;;;;;;670342;29;1325;-89
2022/07/13 00:36:06;;;;;;;;;;;25.90;35.70;;;;;;670084;29;1467;-88
2022/07/13 00:36:26;;;;;;;;;;;25.90;35.60;;;;;;670426;29;1119;-88
2022/07/13 00:36:47;;;;;;;;;;;25.90;35.70;;;;;;672291;29;1243;-89
2022/07/13 00:37:08;;;;;;;;;;;25.90;35.60;;;;;;670157;29;1124;-89
2022/07/13 00:37:28;;;;;;;;;;;25.90;35.60;;;;;;667586;29;1348;-88
2022/07/13 00:37:49;;;;;;;;;;;25.90;35.60;;;;;;667768;29;1211;-89
2022/07/13 00:38:09;;;;;;;;;;;25.90;35.60;;;;;;670232;29;1222;-89
2022/07/13 00:38:30;;;;;;;;;;;25.90;35.60;;;;;;672597;29;1289;-89
2022/07/13 00:38:51;;;;;;;;;;;25.90;35.60;;;;;;672615;29;1318;-88
2022/07/13 00:39:11;;;;;;;;;;;25.90;35.60;;;;;;672811;29;1227;-89
2022/07/13 00:39:32;;;;;;;;;;;26.00;35.70;;;;;;675499;29;1341;-88
2022/07/13 00:39:52;;;;;;;;;;;26.00;35.70;;;;;;674897;29;1333;-89
2022/07/13 00:40:13;;;;;;;;;;;25.90;35.60;;;;;;672405;29;1317;-88
2022/07/13 00:40:34;;;;;;;;;;;25.90;35.60;;;;;;672487;29;1126;-89
2022/07/13 00:40:55;;;;;;;;;;;;;;;;;;672215;29;1258;-89
2022/07/13 00:41:15;;;;;;;;;;;25.90;35.60;;;;;;672613;29;1373;-89
2022/07/13 00:41:43;;;;;;;;;;;26.00;35.60;;;;;;672573;29;1965;-89
2022/07/13 00:42:04;;;;;;;;;;;26.00;35.60;;;;;;671251;29;1365;-88
2022/07/13 00:42:25;;;;;;;;;;;25.90;35.60;;;;;;671466;29;1227;-89
2022/07/13 00:42:45;;;;;;;;;;;26.00;35.60;;;;;;670108;29;1101;-88
2022/07/13 00:43:06;;;;;;;;;;;26.00;35.60;;;;;;667465;29;1369;-89
2022/07/13 00:43:26;;;;;;;;;;;25.90;35.50;;;;;;666253;29;1270;-88
2022/07/13 00:43:47;;;;;;;;;;;25.90;35.60;;;;;;670404;29;1344;-89
2022/07/13 00:44:08;;;;;;;;;;;;;;;;;;672605;29;1219;-88
2022/07/13 00:44:28;;;;;;;;;;;26.00;35.60;;;;;;670430;29;1421;-90
2022/07/13 00:44:49;;;;;;;;;;;26.00;35.60;;;;;;672691;29;1335;-88
2022/07/13 00:45:10;;;;;;;;;;;26.00;35.60;;;;;;672285;29;1261;-89
2022/07/13 00:45:31;;;;;;;;;;;26.00;35.60;;;;;;672338;29;1160;-89
2022/07/13 00:45:52;;;;;;;;;;;26.00;35.60;;;;;;667361;29;1511;-89
2022/07/13 00:46:13;;;;;;;;;;;26.00;35.60;;;;;;667955;29;1200;-89
2022/07/13 00:46:34;;;;;;;;;;;26.00;35.60;;;;;;670085;29;1223;-89
2022/07/13 00:46:55;;;;;;;;;;;26.00;35.60;;;;;;667527;29;1267;-89
2022/07/13 00:47:16;;;;;;;;;;;26.00;35.60;;;;;;667999;29;1342;-89
2022/07/13 00:47:37;;;;;;;;;;;26.00;35.60;;;;;;668104;29;1222;-88
2022/07/13 00:47:58;;;;;;;;;;;26.00;35.60;;;;;;668022;29;1486;-88
2022/07/13 00:48:19;;;;;;;;;;;26.00;35.60;;;;;;672627;29;1341;-89
2022/07/13 00:48:40;;;;;;;;;;;26.00;35.60;;;;;;672670;29;1354;-90
2022/07/13 00:49:00;;;;;;;;;;;26.00;35.60;;;;;;670006;29;1361;-89
2022/07/13 00:49:25;;;;;;;;;;;26.00;35.60;;;;;;667909;29;1157;-89
2022/07/13 00:49:45;;;;;;;;;;;26.00;35.60;;;;;;667550;29;1422;-89
2022/07/13 00:50:06;;;;;;;;;;;26.00;35.50;;;;;;665011;29;1302;-88
2022/07/13 00:50:27;;;;;;;;;;;26.00;35.60;;;;;;663213;29;1210;-88
2022/07/13 00:50:48;;;;;;;;;;;26.00;35.60;;;;;;665873;29;1142;-89
2022/07/13 00:51:08;;;;;;;;;;;26.00;35.60;;;;;;667501;29;1203;-88
2022/07/13 00:51:29;;;;;;;;;;;26.00;35.50;;;;;;665333;29;1118;-88
2022/07/13 00:51:50;;;;;;;;;;;26.00;35.50;;;;;;667455;29;1387;-89
2022/07/13 00:52:11;;;;;;;;;;;26.00;35.50;;;;;;665387;29;1249;-88
2022/07/13 00:52:32;;;;;;;;;;;26.00;35.50;;;;;;664976;29;1496;-89
2022/07/13 00:52:52;;;;;;;;;;;26.00;35.50;;;;;;665501;29;1471;-89
2022/07/13 00:53:13;;;;;;;;;;;26.00;35.60;;;;;;667921;29;1352;-89
2022/07/13 00:53:37;;;;;;;;;;;26.00;35.50;;;;;;667546;29;1257;-87
2022/07/13 00:53:59;;;;;;;;;;;26.00;35.50;;;;;;665825;29;1374;-88
2022/07/13 00:54:28;;;;;;;;;;;26.00;35.50;;;;;;665848;29;1315;-90
2022/07/13 00:54:49;;;;;;;;;;;26.00;35.40;;;;;;667541;29;1241;-88
2022/07/13 00:55:10;;;;;;;;;;;26.00;35.50;;;;;;666876;29;1235;-90
2022/07/13 00:55:31;;;;;;;;;;;26.00;35.50;;;;;;669484;29;1473;-88
2022/07/13 00:55:51;;;;;;;;;;;26.00;35.50;;;;;;667525;29;1244;-89
2022/07/13 00:56:12;;;;;;;;;;;26.00;35.40;;;;;;666502;29;1196;-88
2022/07/13 00:56:33;;;;;;;;;;;26.00;35.50;;;;;;667550;29;1102;-89
2022/07/13 00:56:54;;;;;;;;;;;26.00;35.40;;;;;;667579;29;1367;-89
2022/07/13 00:57:15;;;;;;;;;;;26.00;35.40;;;;;;667461;29;1371;-89
2022/07/13 00:57:36;;;;;;;;;;;26.00;35.40;;;;;;665435;29;1258;-89
2022/07/13 00:57:58;;;;;;;;;;;26.00;35.40;;;;;;668107;29;1435;-88
2022/07/13 00:58:18;;;;;;;;;;;26.00;35.40;;;;;;667509;29;1338;-88
2022/07/13 00:58:39;;;;;;;;;;;25.90;35.30;;;;;;665642;29;1322;-90
2022/07/13 00:59:00;;;;;;;;;;;26.00;35.50;;;;;;665638;29;1184;-89
2022/07/13 00:59:21;;;;;;;;;;;25.90;35.40;;;;;;668060;29;1369;-90
2022/07/13 00:59:41;;;;;;;;;;;26.00;35.40;;;;;;667562;29;1313;-89
2022/07/13 01:00:03;;;;;;;;;;;;;;;;;;667606;29;1284;-89
2022/07/13 01:00:24;;;;;;;;;;;26.00;35.40;;;;;;670005;29;1348;-89
2022/07/13 01:00:45;;;;;;;;;;;26.00;35.40;;;;;;668121;29;1251;-88
2022/07/13 01:01:05;;;;;;;;;;;26.00;35.40;;;;;;670616;29;1448;-88
2022/07/13 01:01:27;;;;;;;;;;;26.00;35.50;;;;;;672589;29;1250;-89
2022/07/13 01:01:48;;;;;;;;;;;;;;;;;;669957;29;1899;-89
2022/07/13 01:02:08;;;;;;;;;;;26.00;35.40;;;;;;672562;29;1324;-88
2022/07/13 01:02:29;;;;;;;;;;;25.90;35.30;;;;;;670151;29;1344;-89
2022/07/13 01:02:50;;;;;;;;;;;26.00;35.50;;;;;;670447;29;1272;-89
2022/07/13 01:03:10;;;;;;;;;;;26.00;35.50;;;;;;670085;29;1256;-89
2022/07/13 01:03:31;;;;;;;;;;;26.00;35.40;;;;;;670168;29;1110;-89
2022/07/13 01:03:51;;;;;;;;;;;26.00;35.40;;;;;;669814;29;1326;-89
2022/07/13 01:04:12;;;;;;;;;;;25.90;35.30;;;;;;670199;29;1406;-90
2022/07/13 01:04:32;;;;;;;;;;;25.90;35.30;;;;;;669967;29;1237;-89
2022/07/13 01:04:53;;;;;;;;;;;25.90;35.30;;;;;;672680;29;1121;-89
2022/07/13 01:05:14;;;;;;;;;;;25.90;35.40;;;;;;672730;29;797;-89
2022/07/13 01:05:34;;;;;;;;;;;25.90;35.50;;;;;;669944;29;1235;-88
2022/07/13 01:05:56;;;;;;;;;;;25.90;35.40;;;;;;670408;29;1474;-89
2022/07/13 01:06:17;;;;;;;;;;;25.90;35.50;;;;;;672600;29;1312;-88
2022/07/13 01:06:38;;;;;;;;;;;25.90;35.50;;;;;;672596;29;1237;-89
2022/07/13 01:06:58;;;;;;;;;;;26.00;35.50;;;;;;670087;29;1353;-88
2022/07/13 01:07:19;;;;;;;;;;;25.90;35.40;;;;;;670004;29;1255;-89
2022/07/13 01:07:40;;;;;;;;;;;25.90;35.40;;;;;;670467;29;1226;-90
2022/07/13 01:08:04;;;;;;;;;;;25.90;35.50;;;;;;672677;29;1181;-88
2022/07/13 01:08:25;;;;;;;;;;;25.90;35.40;;;;;;669931;29;1356;-89
2022/07/13 01:08:46;;;;;;;;;;;25.90;35.40;;;;;;670101;29;1170;-89
2022/07/13 01:09:06;;;;;;;;;;;25.90;35.60;;;;;;670868;29;1426;-89
2022/07/13 01:09:27;;;;;;;;;;;25.90;35.50;;;;;;672641;29;1293;-89
2022/07/13 01:09:47;;;;;;;;;;;25.90;35.50;;;;;;672604;29;1307;-89
2022/07/13 01:10:09;;;;;;;;;;;25.90;35.50;;;;;;672739;29;758;-89
2022/07/13 01:10:30;;;;;;;;;;;25.90;35.50;;;;;;670016;29;1440;-89
2022/07/13 01:10:51;;;;;;;;;;;25.90;35.50;;;;;;670507;29;1231;-89
2022/07/13 01:11:12;;;;;;;;;;;25.90;35.40;;;;;;670147;29;1188;-89
2022/07/13 01:11:33;;;;;;;;;;;25.90;35.50;;;;;;670521;29;1223;-89
2022/07/13 01:11:53;;;;;;;;;;;25.90;35.50;;;;;;672564;29;1388;-89
2022/07/13 01:12:14;;;;;;;;;;;25.90;35.50;;;;;;673136;29;1112;-88
2022/07/13 01:12:36;;;;;;;;;;;25.90;35.60;;;;;;672118;29;1191;-88
2022/07/13 01:12:56;;;;;;;;;;;25.90;35.70;;;;;;668108;29;1250;-87
2022/07/13 01:13:17;;;;;;;;;;;25.90;35.50;;;;;;667541;29;1481;-89
2022/07/13 01:13:38;;;;;;;;;;;25.90;35.50;;;;;;667497;29;1304;-88
2022/07/13 01:13:59;;;;;;;;;;;25.90;35.60;;;;;;667483;29;1259;-87
2022/07/13 01:14:21;;;;;;;;;;;25.90;35.50;;;;;;668021;29;1432;-89
2022/07/13 01:14:41;;;;;;;;;;;25.90;35.50;;;;;;670597;29;1290;-88
2022/07/13 01:15:03;;;;;;;;;;;25.90;35.50;;;;;;672616;29;1209;-89
2022/07/13 01:15:24;;;;;;;;;;;25.90;35.50;;;;;;673293;29;1409;-89
2022/07/13 01:15:44;;;;;;;;;;;25.90;35.50;;;;;;672016;29;1373;-89
2022/07/13 01:16:05;;;;;;;;;;;25.90;35.50;;;;;;670554;29;1207;-89
2022/07/13 01:16:26;;;;;;;;;;;;;;;;;;671059;29;1207;-90
2022/07/13 01:16:47;;;;;;;;;;;25.90;35.60;;;;;;670540;29;1360;-89
2022/07/13 01:17:08;;;;;;;;;;;;;;;;;;667689;29;1267;-89
2022/07/13 01:17:30;;;;;;;;;;;25.90;35.50;;;;;;668402;29;1264;-88
2022/07/13 01:17:50;;;;;;;;;;;25.90;35.50;;;;;;668679;29;1201;-90
2022/07/13 01:18:12;;;;;;;;;;;25.90;35.60;;;;;;670536;29;1443;-88
2022/07/13 01:18:33;;;;;;;;;;;25.90;35.60;;;;;;670501;29;1409;-89
2022/07/13 01:18:54;;;;;;;;;;;25.90;35.60;;;;;;671354;29;949;-88
2022/07/13 01:19:15;;;;;;;;;;;25.90;35.60;;;;;;673017;29;1508;-89
2022/07/13 01:19:36;;;;;;;;;;;25.90;35.50;;;;;;670951;29;1330;-88
2022/07/13 01:19:57;;;;;;;;;;;25.90;35.60;;;;;;670571;29;1340;-89
2022/07/13 01:20:17;;;;;;;;;;;25.90;35.60;;;;;;671067;29;1310;-89
2022/07/13 01:20:38;;;;;;;;;;;;;;;;;;673041;29;1228;-89
2022/07/13 01:20:59;;;;;;;;;;;25.90;35.60;;;;;;672612;29;1196;-88
2022/07/13 01:21:20;;;;;;;;;;;25.90;35.50;;;;;;671066;29;1184;-89
2022/07/13 01:21:42;;;;;;;;;;;25.90;35.60;;;;;;672617;29;1919;-90
2022/07/13 01:22:04;;;;;;;;;;;25.90;35.60;;;;;;670545;29;1255;-89
2022/07/13 01:22:28;;;;;;;;;;;25.90;35.60;;;;;;668055;29;1097;-89
2022/07/13 01:22:51;;;;;;;;;;;25.90;35.60;;;;;;669192;29;1207;-90
2022/07/13 01:23:12;;;;;;;;;;;25.90;35.60;;;;;;668006;29;1278;-89
2022/07/13 01:23:33;;;;;;;;;;;25.90;35.60;;;;;;666920;29;1184;-88
2022/07/13 01:23:54;;;;;;;;;;;25.80;35.50;;;;;;666835;29;1231;-88
2022/07/13 01:24:15;;;;;;;;;;;25.90;35.50;;;;;;669189;29;1214;-89
2022/07/13 01:24:36;;;;;;;;;;;25.90;35.60;;;;;;670596;29;1421;-88
2022/07/13 01:24:57;;;;;;;;;;;25.80;35.50;;;;;;668005;29;1288;-88
2022/07/13 01:25:18;;;;;;;;;;;25.90;35.60;;;;;;665996;29;1497;-89
2022/07/13 01:25:39;;;;;;;;;;;;;;;;;;665998;29;1194;-88
2022/07/13 01:26:01;;;;;;;;;;;25.90;35.60;;;;;;668512;29;1316;-90
2022/07/13 01:26:21;;;;;;;;;;;25.90;35.60;;;;;;668643;29;1491;-89
2022/07/13 01:26:42;;;;;;;;;;;25.90;35.60;;;;;;670677;29;1244;-88
2022/07/13 01:27:02;;;;;;;;;;;25.90;35.60;;;;;;667786;29;1365;-89
2022/07/13 01:27:23;;;;;;;;;;;25.90;35.60;;;;;;668429;29;1413;-88
2022/07/13 01:27:45;;;;;;;;;;;25.90;35.60;;;;;;670858;29;1323;-88
2022/07/13 01:28:06;;;;;;;;;;;25.90;35.70;;;;;;673133;29;1208;-89
2022/07/13 01:28:26;;;;;;;;;;;25.90;35.70;;;;;;673157;29;1311;-89
2022/07/13 01:28:47;;;;;;;;;;;25.90;35.50;;;;;;673093;29;1211;-89
2022/07/13 01:29:08;;;;;;;;;;;25.90;35.50;;;;;;670951;29;1291;-89
2022/07/13 01:29:28;;;;;;;;;;;;;;;;;;672612;29;1461;-89
2022/07/13 01:29:49;;;;;;;;;;;;;;;;;;673361;29;1520;-89
2022/07/13 01:30:10;;;;;;;;;;;25.90;35.60;;;;;;672823;29;1124;-90
2022/07/13 01:30:31;;;;;;;;;;;25.80;35.50;;;;;;672784;29;1223;-89
2022/07/13 01:30:51;;;;;;;;;;;25.90;35.60;;;;;;673419;29;1199;-89
2022/07/13 01:31:12;;;;;;;;;;;25.80;35.50;;;;;;673031;29;1062;-89
2022/07/13 01:31:37;;;;;;;;;;;25.90;35.70;;;;;;672733;29;1109;-88
2022/07/13 01:32:01;;;;;;;;;;;25.90;35.60;;;;;;668740;29;1419;-88
2022/07/13 01:32:22;;;;;;;;;;;25.90;35.60;;;;;;667941;29;1238;-88
2022/07/13 01:32:43;;;;;;;;;;;25.90;35.50;;;;;;667965;29;1143;-90
2022/07/13 01:33:04;;;;;;;;;;;25.90;35.60;;;;;;669417;29;1307;-89
2022/07/13 01:33:24;;;;;;;;;;;25.90;35.60;;;;;;670713;29;1180;-90
2022/07/13 01:33:45;;;;;;;;;;;25.80;35.50;;;;;;668991;29;1324;-89
2022/07/13 01:34:06;;;;;;;;;;;25.90;35.50;;;;;;670596;29;1327;-88
2022/07/13 01:34:26;;;;;;;;;;;25.90;35.50;;;;;;671035;29;1350;-90
2022/07/13 01:34:47;;;;;;;;;;;25.90;35.50;;;;;;673383;29;1402;-88
2022/07/13 01:35:07;;;;;;;;;;;25.90;35.50;;;;;;670868;29;1226;-89
2022/07/13 01:35:28;;;;;;;;;;;25.90;35.50;;;;;;668444;29;1479;-89
2022/07/13 01:35:49;;;;;;;;;;;25.90;35.60;;;;;;670488;29;1365;-89
2022/07/13 01:36:10;;;;;;;;;;;;;;;;;;668296;29;1575;-90
2022/07/13 01:36:30;;;;;;;;;;;25.90;35.60;;;;;;668487;29;1465;-89
2022/07/13 01:36:51;;;;;;;;;;;25.80;35.60;;;;;;670873;29;1310;-89
2022/07/13 01:37:12;;;;;;;;;;;25.80;35.60;;;;;;673311;29;1215;-89
2022/07/13 01:37:32;;;;;;;;;;;25.90;35.70;;;;;;670653;29;1404;-89
2022/07/13 01:37:54;;;;;;;;;;;25.90;35.70;;;;;;670142;29;1289;-89
2022/07/13 01:38:14;;;;;;;;;;;25.80;35.50;;;;;;665618;29;1241;-89
2022/07/13 01:38:35;;;;;;;;;;;25.80;35.50;;;;;;663415;29;1129;-89
2022/07/13 01:38:56;;;;;;;;;;;25.90;35.60;;;;;;665979;29;1380;-89
2022/07/13 01:39:17;;;;;;;;;;;25.90;35.60;;;;;;668446;29;1270;-90
2022/07/13 01:39:38;;;;;;;;;;;25.80;35.50;;;;;;670568;29;1322;-88
2022/07/13 01:39:58;;;;;;;;;;;25.80;35.60;;;;;;670610;29;1267;-89
2022/07/13 01:40:19;;;;;;;;;;;25.90;35.70;;;;;;671003;29;1414;-89
2022/07/13 01:40:41;;;;;;;;;;;25.80;35.60;;;;;;670513;29;1235;-89
2022/07/13 01:41:03;;;;;;;;;;;25.80;35.60;;;;;;670466;29;1263;-90
2022/07/13 01:41:27;;;;;;;;;;;25.80;35.50;;;;;;668545;29;1226;-88
2022/07/13 01:41:48;;;;;;;;;;;;;;;;;;666764;29;1958;-88
2022/07/13 01:42:09;;;;;;;;;;;;;;;;;;667902;29;1424;-89
2022/07/13 01:42:30;;;;;;;;;;;25.80;35.60;;;;;;669055;29;1287;-89
2022/07/13 01:42:51;;;;;;;;;;;25.90;35.60;;;;;;668900;29;1201;-89
2022/07/13 01:43:12;;;;;;;;;;;25.80;35.50;;;;;;671485;29;1195;-89
2022/07/13 01:43:33;;;;;;;;;;;25.90;35.60;;;;;;670936;29;1345;-88
2022/07/13 01:43:53;;;;;;;;;;;25.80;35.50;;;;;;670435;29;1212;-89
2022/07/13 01:44:14;;;;;;;;;;;25.90;35.60;;;;;;670493;29;1326;-89
2022/07/13 01:44:34;;;;;;;;;;;25.80;35.50;;;;;;667927;29;1130;-88
2022/07/13 01:44:55;;;;;;;;;;;25.80;35.60;;;;;;670472;29;1249;-89
2022/07/13 01:45:17;;;;;;;;;;;25.80;35.50;;;;;;670592;29;995;-88
2022/07/13 01:45:37;;;;;;;;;;;25.80;35.60;;;;;;671026;29;1184;-89
2022/07/13 01:45:58;;;;;;;;;;;25.80;35.60;;;;;;672998;29;1317;-89
2022/07/13 01:46:18;;;;;;;;;;;25.80;35.60;;;;;;673399;29;1173;-88
2022/07/13 01:46:39;;;;;;;;;;;;;;;;;;672490;29;1390;-90
2022/07/13 01:47:06;;;;;;;;;;;25.80;35.60;;;;;;673086;29;1127;-88
2022/07/13 01:47:27;;;;;;;;;;;25.80;35.60;;;;;;674129;29;1215;-88
2022/07/13 01:47:48;;;;;;;;;;;25.80;35.60;;;;;;672120;29;1100;-87
2022/07/13 01:48:08;;;;;;;;;;;25.80;35.60;;;;;;671906;29;1330;-89
2022/07/13 01:48:29;;;;;;;;;;;;;;;;;;674185;29;1424;-90
2022/07/13 01:48:51;;;;;;;;;;;25.80;35.60;;;;;;671845;29;1341;-89
2022/07/13 01:49:11;;;;;;;;;;;25.80;35.60;;;;;;673000;29;1227;-89
2022/07/13 01:49:32;;;;;;;;;;;25.80;35.60;;;;;;673523;29;1228;-88
2022/07/13 01:49:52;;;;;;;;;;;25.80;35.60;;;;;;672752;29;1256;-87
2022/07/13 01:50:14;;;;;;;;;;;25.80;35.60;;;;;;667940;29;1204;-88
2022/07/13 01:50:35;;;;;;;;;;;25.80;35.60;;;;;;670874;29;1191;-88
2022/07/13 01:50:55;;;;;;;;;;;25.80;35.60;;;;;;670548;29;1263;-89
2022/07/13 01:51:16;;;;;;;;;;;25.80;35.60;;;;;;668356;29;1275;-89
2022/07/13 01:51:37;;;;;;;;;;;25.80;35.60;;;;;;670430;29;1375;-89
2022/07/13 01:51:58;;;;;;;;;;;25.80;35.60;;;;;;670550;29;1208;-88
2022/07/13 01:52:18;;;;;;;;;;;25.80;35.60;;;;;;670782;29;1112;-88
2022/07/13 01:52:39;;;;;;;;;;;25.80;35.60;;;;;;670772;29;1235;-88
2022/07/13 01:52:59;;;;;;;;;;;25.80;35.60;;;;;;670478;29;1257;-90
2022/07/13 01:53:20;;;;;;;;;;;25.80;35.60;;;;;;670436;29;1440;-88
2022/07/13 01:53:41;;;;;;;;;;;;;;;;;;670597;29;1215;-90
2022/07/13 01:54:02;;;;;;;;;;;25.80;35.70;;;;;;670757;29;1254;-88
2022/07/13 01:54:22;;;;;;;;;;;25.80;35.70;;;;;;672974;29;1404;-88
2022/07/13 01:54:43;;;;;;;;;;;25.80;35.70;;;;;;673342;29;1374;-89
2022/07/13 01:55:04;;;;;;;;;;;25.80;35.70;;;;;;675683;29;1321;-88
2022/07/13 01:55:25;;;;;;;;;;;25.80;35.70;;;;;;675263;29;1398;-89
2022/07/13 01:55:45;;;;;;;;;;;25.80;35.70;;;;;;673437;29;817;-89
2022/07/13 01:56:06;;;;;;;;;;;25.80;35.80;;;;;;673020;29;1213;-89
2022/07/13 01:56:26;;;;;;;;;;;25.80;35.80;;;;;;670888;29;1168;-89
2022/07/13 01:56:47;;;;;;;;;;;25.80;35.80;;;;;;672703;29;1133;-88
2022/07/13 01:57:08;;;;;;;;;;;25.80;35.80;;;;;;673038;29;1171;-88
2022/07/13 01:57:28;;;;;;;;;;;25.80;35.80;;;;;;670523;29;1324;-88
2022/07/13 01:57:55;;;;;;;;;;;25.80;35.80;;;;;;670610;29;1159;-89
2022/07/13 01:58:16;;;;;;;;;;;25.80;35.80;;;;;;673021;29;1289;-89
2022/07/13 01:58:36;;;;;;;;;;;25.80;35.80;;;;;;670494;29;1212;-89
2022/07/13 01:58:58;;;;;;;;;;;25.80;35.80;;;;;;669403;29;1116;-89
2022/07/13 01:59:19;;;;;;;;;;;25.80;35.80;;;;;;669169;29;1454;-90
2022/07/13 01:59:40;;;;;;;;;;;25.80;35.70;;;;;;667971;29;1191;-89
2022/07/13 02:00:04;;;;;;;;;;;25.80;35.80;;;;;;668629;29;1335;-89
2022/07/13 02:00:25;;;;;;;;;;;25.80;35.80;;;;;;671307;29;1306;-88
2022/07/13 02:00:46;;;;;;;;;;;;;;;;;;673082;29;813;-89
2022/07/13 02:01:07;;;;;;;;;;;25.80;35.80;;;;;;673004;29;1193;-88
2022/07/13 02:01:27;;;;;;;;;;;25.80;35.80;;;;;;673938;29;1111;-89
2022/07/13 02:01:48;;;;;;;;;;;25.80;35.70;;;;;;675680;29;1898;-89
2022/07/13 02:02:08;;;;;;;;;;;25.80;35.80;;;;;;673370;29;1335;-88
2022/07/13 02:02:29;;;;;;;;;;;25.80;35.80;;;;;;675496;29;1293;-90
2022/07/13 02:02:50;;;;;;;;;;;25.80;35.80;;;;;;672693;29;1128;-89
2022/07/13 02:03:10;;;;;;;;;;;25.80;35.80;;;;;;672721;29;1224;-89
2022/07/13 02:03:32;;;;;;;;;;;25.80;35.80;;;;;;667788;29;1275;-89
2022/07/13 02:03:53;;;;;;;;;;;25.80;35.70;;;;;;668357;29;1066;-88
2022/07/13 02:04:13;;;;;;;;;;;25.80;35.70;;;;;;670775;29;1275;-89
2022/07/13 02:04:34;;;;;;;;;;;25.80;35.70;;;;;;672954;29;1219;-89
2022/07/13 02:04:54;;;;;;;;;;;25.80;35.70;;;;;;670394;29;1166;-89
2022/07/13 02:05:15;;;;;;;;;;;25.80;35.70;;;;;;670497;29;1251;-88
2022/07/13 02:05:36;;;;;;;;;;;25.80;35.70;;;;;;667817;29;1201;-88
2022/07/13 02:05:57;;;;;;;;;;;25.90;35.70;;;;;;667836;29;1304;-88
2022/07/13 02:06:18;;;;;;;;;;;25.90;35.70;;;;;;665580;29;1492;-88
2022/07/13 02:06:38;;;;;;;;;;;25.90;35.70;;;;;;665711;29;1448;-89